Time;durP1;ratioP1;P1;durP2;ratioP2;P2;SDS_P1;SDS_P2;PMS_P1;PMS_P2;Temp;Humidity;BMP_temperature;BMP_pressure;BME280_temperature;BME280_humidity;BME280_pressure;Samples;Min_cycle;Max_cycle;Signal;HPM_P1;HPM_P2
2022/11/20 00:00:28;;;;;;;;;;;13.90;76.70;;;;;;5042779;28;88134;-39
2022/11/20 00:02:53;;;;;;;;;;;13.90;76.80;;;;;;5042691;28;87164;-39
2022/11/20 00:05:20;;;;;;;;;;;13.90;76.80;;;;;;5042933;28;87604;-39
2022/11/20 00:07:46;;;;;;;;;;;13.90;76.90;;;;;;5045099;28;89438;-39
2022/11/20 00:10:12;;;;;;;;;;;13.90;76.70;;;;;;5042919;27;87776;-39
2022/11/20 00:12:38;;;;;;;;;;;13.90;76.70;;;;;;5042492;28;88096;-39
2022/11/20 00:15:04;;;;;;;;;;;13.90;76.90;;;;;;5043224;28;86315;-39
2022/11/20 00:17:29;;;;;;;;;;;13.90;76.90;;;;;;5042622;27;88350;-39
2022/11/20 00:19:55;;;;;;;;;;;14.00;76.90;;;;;;5042542;28;87397;-39
2022/11/20 00:22:20;;;;;;;;;;;13.90;76.70;;;;;;5041819;28;88057;-39
2022/11/20 00:24:46;;;;;;;;;;;14.00;76.80;;;;;;5042540;28;88350;-39
2022/11/20 00:27:11;;;;;;;;;;;14.00;76.80;;;;;;5041979;28;88059;-39
2022/11/20 00:29:37;;;;;;;;;;;13.90;76.90;;;;;;5045612;28;87142;-39
2022/11/20 00:32:02;;;;;;;;;;;14.00;77.00;;;;;;5042131;28;88045;-39
2022/11/20 00:34:28;;;;;;;;;;;14.00;76.80;;;;;;5042679;28;87124;-39
2022/11/20 00:36:53;;;;;;;;;;;14.00;76.80;;;;;;5042472;28;87312;-39
2022/11/20 00:39:18;;;;;;;;;;;14.00;76.90;;;;;;5042546;28;86403;-39
2022/11/20 00:41:44;;;;;;;;;;;14.00;76.90;;;;;;5042627;28;87113;-39
2022/11/20 00:44:09;;;;;;;;;;;14.00;77.00;;;;;;5042060;28;87441;-39
2022/11/20 00:46:35;;;;;;;;;;;14.00;77.00;;;;;;5041512;28;88025;-39
2022/11/20 00:49:01;;;;;;;;;;;14.00;76.90;;;;;;5042178;28;87034;-39
2022/11/20 00:51:27;;;;;;;;;;;14.00;77.20;;;;;;5044918;28;87558;-39
2022/11/20 00:53:54;;;;;;;;;;;14.00;77.00;;;;;;5041908;28;87081;-39
2022/11/20 00:56:20;;;;;;;;;;;14.00;76.90;;;;;;5042195;27;87040;-39
2022/11/20 00:58:47;;;;;;;;;;;14.00;76.80;;;;;;5041581;28;89526;-39
2022/11/20 01:01:14;;;;;;;;;;;14.00;77.60;;;;;;5042192;27;87156;-39
2022/11/20 01:03:40;;;;;;;;;;;14.00;77.00;;;;;;5042677;28;87241;-39
2022/11/20 01:06:07;;;;;;;;;;;14.00;77.00;;;;;;5041525;28;89437;-39
2022/11/20 01:08:33;;;;;;;;;;;14.00;77.10;;;;;;5041911;28;87050;-39
2022/11/20 01:11:10;;;;;;;;;;;14.00;77.00;;;;;;5041153;27;88887;-39
2022/11/20 01:13:39;;;;;;;;;;;14.00;76.90;;;;;;5044552;28;88038;-39
2022/11/20 01:16:15;;;;;;;;;;;14.00;77.10;;;;;;5041716;28;87427;-39
2022/11/20 01:18:42;;;;;;;;;;;14.00;77.00;;;;;;5041573;28;88101;-39
2022/11/20 01:21:09;;;;;;;;;;;14.00;77.00;;;;;;5041270;28;87124;-39
2022/11/20 01:23:35;;;;;;;;;;;14.00;76.80;;;;;;5040385;28;89219;-39
2022/11/20 01:26:02;;;;;;;;;;;14.00;77.00;;;;;;5041504;28;88225;-39
2022/11/20 01:28:28;;;;;;;;;;;14.10;76.90;;;;;;5042335;28;86390;-39
2022/11/20 01:30:54;;;;;;;;;;;14.00;76.90;;;;;;5041392;27;86977;-39
2022/11/20 01:33:19;;;;;;;;;;;14.00;76.90;;;;;;5041229;28;89411;-39
2022/11/20 01:35:45;;;;;;;;;;;14.00;77.00;;;;;;5043712;28;87969;-39
2022/11/20 01:38:10;;;;;;;;;;;14.00;77.00;;;;;;5041424;27;87974;-39
2022/11/20 01:40:35;;;;;;;;;;;14.10;76.90;;;;;;5044605;28;87798;-39
2022/11/20 01:43:21;;;;;;;;;;;14.00;76.90;;;;;;5045221;28;87079;-39
2022/11/20 01:45:56;;;;;;;;;;;14.10;76.70;;;;;;5044683;28;88032;-39
2022/11/20 01:48:23;;;;;;;;;;;14.00;76.80;;;;;;5045016;28;87081;-39
2022/11/20 01:50:49;;;;;;;;;;;14.00;77.20;;;;;;5045174;27;87374;-39
2022/11/20 01:53:18;;;;;;;;;;;14.00;77.00;;;;;;5045343;28;87286;-39
2022/11/20 01:55:47;;;;;;;;;;;14.10;76.70;;;;;;5047618;28;87101;-39
2022/11/20 01:58:13;;;;;;;;;;;14.10;76.90;;;;;;5044568;28;88172;-39
2022/11/20 02:00:40;;;;;;;;;;;14.10;76.90;;;;;;5044192;28;88057;-39
2022/11/20 02:03:07;;;;;;;;;;;14.10;76.80;;;;;;5044558;27;88744;-39
2022/11/20 02:05:35;;;;;;;;;;;14.10;76.90;;;;;;5044394;28;88282;-39
2022/11/20 02:08:02;;;;;;;;;;;14.10;76.90;;;;;;5044814;28;87201;-39
2022/11/20 02:10:28;;;;;;;;;;;14.10;76.90;;;;;;5044613;28;87507;-39
2022/11/20 02:15:37;;;;;;;;;;;14.10;76.60;;;;;;5044775;28;87120;-39
2022/11/20 02:18:03;;;;;;;;;;;14.10;76.70;;;;;;5047714;28;87417;-39
2022/11/20 02:20:29;;;;;;;;;;;14.10;76.70;;;;;;5044637;28;87139;-39
2022/11/20 02:22:57;;;;;;;;;;;14.10;76.80;;;;;;5044636;28;87560;-39
2022/11/20 02:25:24;;;;;;;;;;;14.10;76.70;;;;;;5043308;28;89072;-39
2022/11/20 02:27:50;;;;;;;;;;;14.10;76.70;;;;;;5044548;28;87172;-39
2022/11/20 02:30:15;;;;;;;;;;;14.10;76.80;;;;;;5044265;27;87311;-39
2022/11/20 02:32:41;;;;;;;;;;;14.10;76.90;;;;;;5043991;28;88039;-39
2022/11/20 02:35:19;;;;;;;;;;;14.10;76.80;;;;;;5042900;28;87517;-39
2022/11/20 02:37:45;;;;;;;;;;;14.10;76.90;;;;;;5044440;27;87461;-39
2022/11/20 02:40:11;;;;;;;;;;;14.10;76.70;;;;;;5046818;28;87802;-39
2022/11/20 02:42:37;;;;;;;;;;;14.10;76.70;;;;;;5044457;27;87317;-39
2022/11/20 02:45:03;;;;;;;;;;;14.20;76.60;;;;;;5043474;28;88081;-39
2022/11/20 02:47:28;;;;;;;;;;;14.10;76.70;;;;;;5044260;28;87090;-39
2022/11/20 02:49:54;;;;;;;;;;;14.10;76.70;;;;;;5043062;27;87831;-39
2022/11/20 02:52:19;;;;;;;;;;;14.10;76.90;;;;;;5043470;28;88654;-39
2022/11/20 02:54:45;;;;;;;;;;;14.10;76.70;;;;;;5044162;28;87153;-39
2022/11/20 02:57:10;;;;;;;;;;;14.20;76.70;;;;;;5043809;28;87911;-39
2022/11/20 02:59:36;;;;;;;;;;;14.20;76.60;;;;;;5043649;28;88202;-39
2022/11/20 03:02:01;;;;;;;;;;;14.10;77.30;;;;;;5046950;28;87129;-39
2022/11/20 03:04:27;;;;;;;;;;;14.10;76.90;;;;;;5043423;28;88198;-39
2022/11/20 03:06:52;;;;;;;;;;;14.20;76.60;;;;;;5044361;28;86573;-39
2022/11/20 03:09:18;;;;;;;;;;;14.20;76.60;;;;;;5043836;28;87060;-39
2022/11/20 03:11:43;;;;;;;;;;;14.10;76.80;;;;;;5043393;28;88135;-39
2022/11/20 03:14:09;;;;;;;;;;;14.10;76.60;;;;;;5043173;28;88088;-39
2022/11/20 03:16:34;;;;;;;;;;;14.20;76.70;;;;;;5043515;27;89463;-39
2022/11/20 03:19:00;;;;;;;;;;;14.20;76.70;;;;;;5043348;28;87200;-39
2022/11/20 03:21:26;;;;;;;;;;;14.20;76.70;;;;;;5043686;28;87127;-39
2022/11/20 03:23:53;;;;;;;;;;;14.20;76.60;;;;;;5046385;27;87227;-39
2022/11/20 03:26:19;;;;;;;;;;;14.20;76.60;;;;;;5043358;28;87118;-39
2022/11/20 03:28:49;;;;;;;;;;;14.10;76.60;;;;;;5043519;28;87715;-39
2022/11/20 03:31:15;;;;;;;;;;;14.20;76.60;;;;;;5043509;28;87225;-39
2022/11/20 03:33:41;;;;;;;;;;;14.20;76.60;;;;;;5043505;28;87110;-39
2022/11/20 03:36:14;;;;;;;;;;;14.20;76.60;;;;;;5043340;28;86900;-39
2022/11/20 03:38:39;;;;;;;;;;;14.20;76.60;;;;;;5042478;28;89183;-39
2022/11/20 03:41:09;;;;;;;;;;;14.20;76.60;;;;;;5043367;28;87168;-39
2022/11/20 03:43:35;;;;;;;;;;;14.20;76.60;;;;;;5043338;28;87315;-39
2022/11/20 03:46:01;;;;;;;;;;;14.20;76.50;;;;;;5045798;28;88081;-39
2022/11/20 03:48:26;;;;;;;;;;;14.20;76.50;;;;;;5043340;27;87369;-39
2022/11/20 03:50:53;;;;;;;;;;;14.20;76.40;;;;;;5043239;28;87993;-39
2022/11/20 03:53:19;;;;;;;;;;;14.20;76.50;;;;;;5043143;28;87080;-39
2022/11/20 03:55:45;;;;;;;;;;;14.20;76.50;;;;;;5043370;28;87441;-39
2022/11/20 03:58:10;;;;;;;;;;;14.20;76.40;;;;;;5042822;28;87726;-39
2022/11/20 04:00:36;;;;;;;;;;;14.20;76.40;;;;;;5042976;27;87142;-39
2022/11/20 04:03:02;;;;;;;;;;;14.20;76.40;;;;;;5041700;27;88310;-39
2022/11/20 04:05:28;;;;;;;;;;;14.20;76.40;;;;;;5045548;28;88022;-39
2022/11/20 04:07:53;;;;;;;;;;;14.20;76.30;;;;;;5043239;28;87535;-39
2022/11/20 04:10:19;;;;;;;;;;;14.20;76.30;;;;;;5042492;28;87167;-39
2022/11/20 04:12:44;;;;;;;;;;;14.20;76.20;;;;;;5043112;28;87014;-39
2022/11/20 04:15:10;;;;;;;;;;;14.20;76.20;;;;;;5043045;28;87482;-39
2022/11/20 04:17:35;;;;;;;;;;;14.20;76.20;;;;;;5042422;28;88075;-39
2022/11/20 04:20:01;;;;;;;;;;;14.20;76.20;;;;;;5043222;28;86421;-39
2022/11/20 04:22:26;;;;;;;;;;;14.20;76.10;;;;;;5043097;27;87185;-39
2022/11/20 04:24:52;;;;;;;;;;;14.20;76.20;;;;;;5042246;28;88978;-39
2022/11/20 04:27:18;;;;;;;;;;;14.20;76.20;;;;;;5044752;28;87951;-39
2022/11/20 04:29:43;;;;;;;;;;;14.20;76.20;;;;;;5042442;28;87804;-39
2022/11/20 04:32:09;;;;;;;;;;;14.20;76.20;;;;;;5042297;28;87079;-39
2022/11/20 04:34:34;;;;;;;;;;;14.20;76.10;;;;;;5042593;28;87526;-39
2022/11/20 04:37:00;;;;;;;;;;;14.20;76.10;;;;;;5042192;28;88087;-39
2022/11/20 04:39:25;;;;;;;;;;;14.20;76.10;;;;;;5042737;28;87036;-39
2022/11/20 04:42:28;;;;;;;;;;;14.20;76.00;;;;;;5042347;28;87396;-39
2022/11/20 04:44:36;;;;;;;;;;;14.20;76.00;;;;;;5042008;28;88021;-39
2022/11/20 04:47:02;;;;;;;;;;;14.20;76.00;;;;;;5042596;28;87108;-39
2022/11/20 04:49:27;;;;;;;;;;;14.20;76.00;;;;;;5045194;28;86898;-39
2022/11/20 04:51:53;;;;;;;;;;;14.20;76.00;;;;;;5041697;28;88095;-39
2022/11/20 04:54:20;;;;;;;;;;;14.20;76.10;;;;;;5042298;28;88399;-39
2022/11/20 04:56:48;;;;;;;;;;;14.20;76.10;;;;;;5041829;28;88265;-39
2022/11/20 04:59:14;;;;;;;;;;;14.20;76.00;;;;;;5042191;28;87073;-39
2022/11/20 05:01:39;;;;;;;;;;;14.20;76.10;;;;;;5042277;28;88270;-39
2022/11/20 05:04:05;;;;;;;;;;;14.20;76.00;;;;;;5041856;28;87997;-39
2022/11/20 05:06:31;;;;;;;;;;;14.20;76.10;;;;;;5042388;28;87094;-39
2022/11/20 05:08:57;;;;;;;;;;;14.20;76.30;;;;;;5042619;27;87482;-39
2022/11/20 05:11:22;;;;;;;;;;;14.20;76.30;;;;;;5044711;28;88151;-39
2022/11/20 05:13:49;;;;;;;;;;;14.20;76.20;;;;;;5043765;27;87221;-39
2022/11/20 05:16:19;;;;;;;;;;;14.20;76.30;;;;;;5044508;28;88189;-39
2022/11/20 05:18:45;;;;;;;;;;;14.20;76.30;;;;;;5045526;28;87091;-39
2022/11/20 05:21:11;;;;;;;;;;;14.20;76.40;;;;;;5045712;27;87551;-39
2022/11/20 05:23:36;;;;;;;;;;;14.20;76.40;;;;;;5044899;28;88080;-39
2022/11/20 05:26:02;;;;;;;;;;;14.20;76.40;;;;;;5045542;28;87146;-39
2022/11/20 05:28:29;;;;;;;;;;;14.20;76.30;;;;;;5045689;27;87383;-39
2022/11/20 05:30:54;;;;;;;;;;;14.20;76.20;;;;;;5044917;28;87190;-39
2022/11/20 05:33:20;;;;;;;;;;;14.20;76.00;;;;;;5048782;28;86401;-39
2022/11/20 05:35:46;;;;;;;;;;;14.20;76.00;;;;;;5044680;28;89137;-39
2022/11/20 05:38:11;;;;;;;;;;;14.20;76.10;;;;;;5045001;28;87390;-39
2022/11/20 05:40:37;;;;;;;;;;;14.20;76.00;;;;;;5044851;28;88360;-39
2022/11/20 05:43:02;;;;;;;;;;;14.20;76.00;;;;;;5044599;28;89402;-39
2022/11/20 05:45:28;;;;;;;;;;;14.20;75.90;;;;;;5044885;28;87098;-39
2022/11/20 05:47:57;;;;;;;;;;;14.20;76.30;;;;;;5045215;27;87120;-39
2022/11/20 05:50:22;;;;;;;;;;;14.20;76.40;;;;;;5044736;28;88107;-39
2022/11/20 05:52:48;;;;;;;;;;;14.20;76.20;;;;;;5044848;28;87124;-39
2022/11/20 05:55:13;;;;;;;;;;;14.20;76.20;;;;;;5047629;28;87424;-39
2022/11/20 05:57:39;;;;;;;;;;;14.20;76.00;;;;;;5045316;28;86352;-39
2022/11/20 06:00:04;;;;;;;;;;;14.30;76.10;;;;;;5044999;28;86980;-39
2022/11/20 06:02:30;;;;;;;;;;;14.20;76.10;;;;;;5044793;28;88164;-39
2022/11/20 06:04:55;;;;;;;;;;;14.20;76.00;;;;;;5044145;28;87969;-39
2022/11/20 06:07:21;;;;;;;;;;;14.20;76.10;;;;;;5044685;28;87881;-39
2022/11/20 06:09:46;;;;;;;;;;;14.20;76.10;;;;;;5044267;28;87725;-39
2022/11/20 06:12:12;;;;;;;;;;;14.30;76.20;;;;;;5044758;28;87130;-39
2022/11/20 06:14:37;;;;;;;;;;;14.30;76.30;;;;;;5047231;28;87961;-39
2022/11/20 06:17:03;;;;;;;;;;;14.20;76.20;;;;;;5044605;28;87160;-39
2022/11/20 06:19:28;;;;;;;;;;;14.30;76.30;;;;;;5044687;28;87095;-39
2022/11/20 06:21:54;;;;;;;;;;;14.20;76.10;;;;;;5044482;28;88400;-39
2022/11/20 06:24:19;;;;;;;;;;;14.20;76.20;;;;;;5044209;28;87064;-39
2022/11/20 06:26:45;;;;;;;;;;;14.30;76.40;;;;;;5043957;28;87492;-39
2022/11/20 06:29:10;;;;;;;;;;;14.30;76.40;;;;;;5043595;28;88988;-39
2022/11/20 06:31:37;;;;;;;;;;;14.30;76.50;;;;;;5044281;28;87144;-39
2022/11/20 06:34:06;;;;;;;;;;;14.30;76.50;;;;;;5044285;27;88456;-39
2022/11/20 06:36:31;;;;;;;;;;;14.30;76.00;;;;;;5046836;28;88425;-39
2022/11/20 06:38:57;;;;;;;;;;;14.30;76.00;;;;;;5044543;27;87353;-39
2022/11/20 06:41:22;;;;;;;;;;;14.30;76.10;;;;;;5044074;28;87243;-39
2022/11/20 06:43:48;;;;;;;;;;;14.30;76.10;;;;;;5044675;28;87472;-39
2022/11/20 06:46:17;;;;;;;;;;;14.30;76.10;;;;;;5044770;27;87335;-39
2022/11/20 06:48:42;;;;;;;;;;;14.30;76.10;;;;;;5044063;28;89194;-39
2022/11/20 06:51:08;;;;;;;;;;;14.30;76.10;;;;;;5044514;28;87155;-39
2022/11/20 06:53:34;;;;;;;;;;;14.30;76.10;;;;;;5043658;28;88251;-39
2022/11/20 06:55:59;;;;;;;;;;;14.30;76.10;;;;;;5043975;28;87100;-39
2022/11/20 06:58:28;;;;;;;;;;;14.40;76.10;;;;;;5047324;28;87116;-39
2022/11/20 07:00:57;;;;;;;;;;;14.30;76.20;;;;;;5043692;28;88947;-39
2022/11/20 07:03:22;;;;;;;;;;;14.30;76.30;;;;;;5044013;28;86997;-39
2022/11/20 07:05:48;;;;;;;;;;;14.30;76.20;;;;;;5044251;27;87352;-39
2022/11/20 07:08:14;;;;;;;;;;;14.30;76.10;;;;;;5043991;28;88000;-39
2022/11/20 07:10:39;;;;;;;;;;;14.30;76.20;;;;;;5044454;28;86363;-39
2022/11/20 07:13:06;;;;;;;;;;;14.30;76.30;;;;;;5044255;28;86948;-39
2022/11/20 07:15:32;;;;;;;;;;;14.30;76.20;;;;;;5043747;28;88022;-39
2022/11/20 07:18:01;;;;;;;;;;;14.30;76.30;;;;;;5043323;28;88008;-39
2022/11/20 07:20:26;;;;;;;;;;;14.30;76.40;;;;;;5046480;27;89418;-39
2022/11/20 07:22:55;;;;;;;;;;;14.30;76.30;;;;;;5043757;28;87148;-39
2022/11/20 07:25:22;;;;;;;;;;;14.30;76.40;;;;;;5043513;27;88640;-39
2022/11/20 07:27:47;;;;;;;;;;;14.30;76.30;;;;;;5043494;28;88003;-39
2022/11/20 07:30:13;;;;;;;;;;;14.30;76.50;;;;;;5043845;28;87109;-39
2022/11/20 07:32:39;;;;;;;;;;;14.30;76.40;;;;;;5043514;27;88572;-39
2022/11/20 07:35:05;;;;;;;;;;;14.40;76.40;;;;;;5044034;28;87357;-39
2022/11/20 07:37:30;;;;;;;;;;;14.40;76.30;;;;;;5042356;27;87158;-39
2022/11/20 07:39:56;;;;;;;;;;;14.40;76.40;;;;;;5043604;28;87966;-39
2022/11/20 07:42:21;;;;;;;;;;;14.30;76.20;;;;;;5045599;28;88972;-39
2022/11/20 07:44:47;;;;;;;;;;;14.40;76.20;;;;;;5043053;28;88331;-39
2022/11/20 07:47:12;;;;;;;;;;;14.40;76.10;;;;;;5043063;28;89499;-39
2022/11/20 07:49:38;;;;;;;;;;;14.40;76.20;;;;;;5043623;28;87138;-39
2022/11/20 07:52:03;;;;;;;;;;;14.40;76.10;;;;;;5043581;27;87348;-39
2022/11/20 07:54:29;;;;;;;;;;;14.40;76.10;;;;;;5043104;28;88055;-39
2022/11/20 07:56:54;;;;;;;;;;;14.40;76.10;;;;;;5043302;28;87119;-39
2022/11/20 07:59:20;;;;;;;;;;;14.40;76.10;;;;;;5043765;27;87691;-39
2022/11/20 08:01:45;;;;;;;;;;;14.40;76.00;;;;;;5043072;28;87709;-39
2022/11/20 08:04:11;;;;;;;;;;;14.40;76.10;;;;;;5045980;28;87331;-39
2022/11/20 08:06:36;;;;;;;;;;;14.40;76.10;;;;;;5041842;28;90609;-39
2022/11/20 08:09:02;;;;;;;;;;;14.40;76.00;;;;;;5043266;28;87140;-38
2022/11/20 08:14:12;;;;;;;;;;;14.40;76.10;;;;;;5043196;28;87225;-39
2022/11/20 08:16:41;;;;;;;;;;;14.40;76.10;;;;;;5043172;28;87123;-39
2022/11/20 08:19:07;;;;;;;;;;;14.40;76.00;;;;;;5042806;27;89051;-39
2022/11/20 08:21:33;;;;;;;;;;;14.40;76.40;;;;;;5042843;28;87991;-39
2022/11/20 08:23:58;;;;;;;;;;;14.40;76.20;;;;;;5046747;28;86698;-39
2022/11/20 08:26:24;;;;;;;;;;;14.40;76.40;;;;;;5042572;28;88958;-39
2022/11/20 08:28:54;;;;;;;;;;;14.40;76.60;;;;;;5043013;28;87079;-39
2022/11/20 08:31:20;;;;;;;;;;;14.40;76.30;;;;;;5042079;27;88630;-39
2022/11/20 08:33:45;;;;;;;;;;;14.40;76.40;;;;;;5042464;28;87981;-39
2022/11/20 08:36:11;;;;;;;;;;;14.40;76.30;;;;;;5043024;28;87021;-39
2022/11/20 08:38:36;;;;;;;;;;;14.40;76.40;;;;;;5042967;28;87559;-39
2022/11/20 08:43:47;;;;;;;;;;;14.40;76.50;;;;;;5042940;28;86873;-39
2022/11/20 08:46:13;;;;;;;;;;;14.40;76.60;;;;;;5045190;28;87315;-39
2022/11/20 08:48:38;;;;;;;;;;;14.40;76.30;;;;;;5042886;28;86338;-39
2022/11/20 08:51:04;;;;;;;;;;;14.40;76.30;;;;;;5042839;28;86943;-39
2022/11/20 08:53:30;;;;;;;;;;;14.40;76.40;;;;;;5042414;28;88030;-39
2022/11/20 08:55:56;;;;;;;;;;;14.40;76.30;;;;;;5041778;28;88004;-39
2022/11/20 08:58:22;;;;;;;;;;;14.40;76.20;;;;;;5042590;28;88428;-39
2022/11/20 09:00:47;;;;;;;;;;;14.40;76.80;;;;;;5042254;28;88404;-39
2022/11/20 09:03:13;;;;;;;;;;;14.40;76.30;;;;;;5042565;28;87144;-39
2022/11/20 09:05:38;;;;;;;;;;;14.40;76.40;;;;;;5042335;27;88880;-40
2022/11/20 09:08:04;;;;;;;;;;;14.40;76.40;;;;;;5044945;28;88153;-39
2022/11/20 09:10:29;;;;;;;;;;;14.40;76.30;;;;;;5042446;28;87528;-39
2022/11/20 09:12:55;;;;;;;;;;;14.40;76.40;;;;;;5042641;28;87656;-39
2022/11/20 09:15:21;;;;;;;;;;;14.40;76.40;;;;;;5042172;28;87109;-39
2022/11/20 09:17:58;;;;;;;;;;;14.40;76.40;;;;;;5042283;27;87045;-40
2022/11/20 09:20:24;;;;;;;;;;;14.40;76.40;;;;;;5041466;28;89368;-39
2022/11/20 09:22:50;;;;;;;;;;;14.50;76.40;;;;;;5042014;28;87103;-40
2022/11/20 09:25:16;;;;;;;;;;;14.40;76.40;;;;;;5042252;28;88009;-39
2022/11/20 09:27:43;;;;;;;;;;;14.40;76.40;;;;;;5042069;28;88074;-40
2022/11/20 09:30:09;;;;;;;;;;;14.40;76.40;;;;;;5044976;28;87119;-40
2022/11/20 09:32:35;;;;;;;;;;;14.40;76.40;;;;;;5041481;28;88124;-40
2022/11/20 09:35:01;;;;;;;;;;;14.40;76.40;;;;;;5042066;28;87056;-39
2022/11/20 09:37:26;;;;;;;;;;;14.40;76.40;;;;;;5042586;27;86522;-39
2022/11/20 09:39:52;;;;;;;;;;;14.40;76.40;;;;;;5041881;28;88187;-39
2022/11/20 09:42:17;;;;;;;;;;;14.40;76.30;;;;;;5042329;28;87131;-40
2022/11/20 09:45:01;;;;;;;;;;;14.50;76.30;;;;;;5041067;27;87848;-39
2022/11/20 09:47:33;;;;;;;;;;;14.50;76.30;;;;;;5041722;27;88115;-40
2022/11/20 09:50:17;;;;;;;;;;;14.50;76.40;;;;;;5042143;28;86977;-40
2022/11/20 09:53:01;;;;;;;;;;;14.50;76.40;;;;;;5044586;27;87014;-40
2022/11/20 09:55:28;;;;;;;;;;;14.50;76.40;;;;;;5041699;27;87003;-39
2022/11/20 09:57:53;;;;;;;;;;;14.50;76.50;;;;;;5041938;27;87071;-39
2022/11/20 10:00:23;;;;;;;;;;;14.50;76.40;;;;;;5042709;27;88151;-39
2022/11/20 10:02:53;;;;;;;;;;;14.50;76.30;;;;;;5045730;28;86362;-39
2022/11/20 10:05:31;;;;;;;;;;;14.50;76.30;;;;;;5045203;27;87745;-39
2022/11/20 10:08:14;;;;;;;;;;;14.50;76.50;;;;;;5044383;28;88922;-39
2022/11/20 10:10:42;;;;;;;;;;;14.50;76.60;;;;;;5044395;28;88086;-39
2022/11/20 10:13:11;;;;;;;;;;;14.50;76.50;;;;;;5047682;28;88431;-39
2022/11/20 10:15:42;;;;;;;;;;;14.50;76.60;;;;;;5045054;28;87102;-39
2022/11/20 10:18:25;;;;;;;;;;;14.50;76.60;;;;;;5045150;28;87505;-39
2022/11/20 10:20:57;;;;;;;;;;;14.50;76.50;;;;;;5044609;27;88061;-39
2022/11/20 10:23:41;;;;;;;;;;;14.50;76.40;;;;;;5045020;28;87226;-39
2022/11/20 10:26:25;;;;;;;;;;;14.50;76.50;;;;;;5045173;27;87462;-39
2022/11/20 10:29:03;;;;;;;;;;;14.50;76.70;;;;;;5044813;28;88044;-40
2022/11/20 10:31:33;;;;;;;;;;;14.50;76.70;;;;;;5044550;28;87141;-40
2022/11/20 10:34:00;;;;;;;;;;;14.50;76.80;;;;;;5044718;27;87583;-40
2022/11/20 10:36:33;;;;;;;;;;;14.50;76.80;;;;;;5046540;28;88800;-40
2022/11/20 10:39:25;;;;;;;;;;;14.50;76.80;;;;;;5044836;27;88361;-40
2022/11/20 10:41:51;;;;;;;;;;;14.50;76.90;;;;;;5027177;28;88102;-40
2022/11/20 10:47:04;;;;;;;;;;;14.50;77.40;;;;;;5043831;28;86976;-39
2022/11/20 10:49:30;;;;;;;;;;;14.40;77.40;;;;;;5044031;28;88301;-39
2022/11/20 10:51:58;;;;;;;;;;;14.50;77.30;;;;;;5044222;28;87082;-39
2022/11/20 10:54:27;;;;;;;;;;;14.40;77.10;;;;;;5044952;27;86530;-39
2022/11/20 10:56:53;;;;;;;;;;;14.40;77.40;;;;;;5044235;28;87942;-40
2022/11/20 10:59:30;;;;;;;;;;;14.40;77.10;;;;;;5047473;28;87302;-40
2022/11/20 11:01:56;;;;;;;;;;;14.40;77.00;;;;;;5043321;28;90356;-40
2022/11/20 11:04:36;;;;;;;;;;;14.40;77.00;;;;;;5044225;28;87157;-40
2022/11/20 11:07:12;;;;;;;;;;;14.40;76.80;;;;;;5044249;28;87301;-40
2022/11/20 11:09:47;;;;;;;;;;;14.40;76.80;;;;;;5043787;28;88085;-40
2022/11/20 11:12:13;;;;;;;;;;;14.40;76.70;;;;;;5043806;27;87024;-40
2022/11/20 11:14:42;;;;;;;;;;;14.40;76.70;;;;;;5044254;27;86944;-40
2022/11/20 11:17:18;;;;;;;;;;;14.40;76.60;;;;;;5043286;28;87976;-40
2022/11/20 11:19:43;;;;;;;;;;;14.40;76.70;;;;;;5044399;28;86205;-40
2022/11/20 11:22:15;;;;;;;;;;;14.40;76.80;;;;;;5046813;28;86983;-40
2022/11/20 11:24:50;;;;;;;;;;;14.40;76.60;;;;;;5044097;28;86982;-40
2022/11/20 11:27:17;;;;;;;;;;;14.40;76.60;;;;;;5043349;27;87814;-40
2022/11/20 11:29:43;;;;;;;;;;;14.30;76.70;;;;;;5043687;28;87957;-40
2022/11/20 11:32:12;;;;;;;;;;;14.30;76.50;;;;;;5043716;28;87010;-40
2022/11/20 11:37:22;;;;;;;;;;;14.40;76.60;;;;;;5043749;28;87391;-40
2022/11/20 11:39:48;;;;;;;;;;;14.40;76.60;;;;;;5043647;28;87056;-40
2022/11/20 11:42:17;;;;;;;;;;;14.30;76.40;;;;;;5043744;27;87387;-40
2022/11/20 11:45:05;;;;;;;;;;;14.30;76.40;;;;;;5046424;28;87416;-40
2022/11/20 11:47:33;;;;;;;;;;;14.30;76.40;;;;;;5043827;27;86978;-40
2022/11/20 11:50:01;;;;;;;;;;;14.30;76.40;;;;;;5043255;28;87978;-41
2022/11/20 11:52:28;;;;;;;;;;;14.30;76.40;;;;;;5042817;28;88109;-41
2022/11/20 11:54:56;;;;;;;;;;;14.30;76.40;;;;;;5043482;27;88220;-41
2022/11/20 11:57:28;;;;;;;;;;;14.30;76.40;;;;;;5043344;28;88322;-40
2022/11/20 11:59:59;;;;;;;;;;;14.30;76.40;;;;;;5043785;28;87083;-41
2022/11/20 12:02:45;;;;;;;;;;;14.30;76.40;;;;;;5043660;27;87108;-41
2022/11/20 12:05:16;;;;;;;;;;;14.30;76.40;;;;;;5034665;28;87934;-41
2022/11/20 12:07:43;;;;;;;;;;;14.30;76.30;;;;;;5046154;28;87108;-41
2022/11/20 12:10:14;;;;;;;;;;;14.20;76.30;;;;;;5043392;28;87515;-41
2022/11/20 12:12:43;;;;;;;;;;;14.20;76.30;;;;;;5043563;28;87005;-41
2022/11/20 12:15:15;;;;;;;;;;;14.30;76.30;;;;;;5042981;27;88621;-41
2022/11/20 12:17:41;;;;;;;;;;;14.20;76.20;;;;;;5041953;28;89022;-41
2022/11/20 12:20:12;;;;;;;;;;;14.20;76.20;;;;;;5043029;28;87176;-41
2022/11/20 12:22:46;;;;;;;;;;;14.20;76.10;;;;;;5042337;28;86961;-41
2022/11/20 12:25:12;;;;;;;;;;;14.20;76.20;;;;;;5042489;28;89405;-41
2022/11/20 12:27:49;;;;;;;;;;;14.20;76.20;;;;;;5046054;28;87644;-41
2022/11/20 12:30:16;;;;;;;;;;;14.20;76.10;;;;;;5042684;28;88190;-41
2022/11/20 12:33:00;;;;;;;;;;;14.10;76.00;;;;;;5042874;28;87168;-41
2022/11/20 12:35:38;;;;;;;;;;;14.20;76.10;;;;;;5043148;27;88624;-41
2022/11/20 12:38:22;;;;;;;;;;;14.20;76.00;;;;;;5042186;28;89180;-41
2022/11/20 12:40:58;;;;;;;;;;;14.20;76.10;;;;;;5042901;27;87097;-41
2022/11/20 12:46:28;;;;;;;;;;;14.20;75.90;;;;;;5025632;28;87182;-41
2022/11/20 12:48:56;;;;;;;;;;;14.20;75.90;;;;;;5042466;28;87233;-41
2022/11/20 12:51:24;;;;;;;;;;;14.20;75.90;;;;;;5045383;28;87612;-41
2022/11/20 12:53:53;;;;;;;;;;;14.10;75.70;;;;;;5042791;28;87043;-41
2022/11/20 12:56:24;;;;;;;;;;;14.20;75.80;;;;;;5042598;28;87289;-41
2022/11/20 12:58:50;;;;;;;;;;;14.10;75.80;;;;;;5042423;28;87245;-41
2022/11/20 13:01:39;;;;;;;;;;;14.20;75.80;;;;;;5042934;28;86388;-41
2022/11/20 13:04:08;;;;;;;;;;;14.20;75.80;;;;;;5042910;27;87030;-41
2022/11/20 13:06:34;;;;;;;;;;;14.20;75.60;;;;;;5042196;28;87911;-41
2022/11/20 13:09:00;;;;;;;;;;;14.20;75.70;;;;;;5041923;28;88088;-41
2022/11/20 13:11:44;;;;;;;;;;;14.20;75.70;;;;;;5042533;27;88608;-41
2022/11/20 13:14:13;;;;;;;;;;;14.10;75.60;;;;;;5045178;28;87205;-41
2022/11/20 13:16:42;;;;;;;;;;;14.10;75.60;;;;;;5042248;27;87357;-41
2022/11/20 13:19:11;;;;;;;;;;;14.10;75.60;;;;;;5042164;28;87911;-41
2022/11/20 13:21:41;;;;;;;;;;;14.10;75.50;;;;;;5042407;28;87113;-41
2022/11/20 13:24:18;;;;;;;;;;;14.10;75.50;;;;;;5042324;28;87426;-41
2022/11/20 13:26:44;;;;;;;;;;;14.10;75.50;;;;;;5042125;28;87129;-41
2022/11/20 13:29:11;;;;;;;;;;;14.10;75.50;;;;;;5042289;28;87142;-41
2022/11/20 13:31:39;;;;;;;;;;;14.20;75.50;;;;;;5041908;28;87322;-41
2022/11/20 13:34:06;;;;;;;;;;;14.10;75.60;;;;;;5041119;27;88794;-41
2022/11/20 13:36:32;;;;;;;;;;;14.10;75.60;;;;;;5047895;28;87202;-41
2022/11/20 13:38:57;;;;;;;;;;;14.10;75.50;;;;;;5044882;28;89380;-41
2022/11/20 13:41:31;;;;;;;;;;;14.10;75.50;;;;;;5045803;28;87094;-41
2022/11/20 13:44:19;;;;;;;;;;;14.10;75.50;;;;;;5045267;27;87380;-41
2022/11/20 13:46:46;;;;;;;;;;;14.10;75.60;;;;;;5044975;27;88206;-41
2022/11/20 13:49:17;;;;;;;;;;;14.10;75.60;;;;;;5045271;28;87130;-41
2022/11/20 13:51:43;;;;;;;;;;;14.10;75.50;;;;;;5045838;28;87558;-41
2022/11/20 13:54:17;;;;;;;;;;;14.10;75.50;;;;;;5044957;28;88666;-41
2022/11/20 13:56:43;;;;;;;;;;;14.10;75.50;;;;;;5045050;28;87169;-41
2022/11/20 13:59:14;;;;;;;;;;;14.00;75.50;;;;;;5047537;28;88058;-41
2022/11/20 14:01:41;;;;;;;;;;;14.00;75.50;;;;;;5045523;28;88097;-41
2022/11/20 14:04:08;;;;;;;;;;;14.10;75.50;;;;;;5045171;27;86975;-41
2022/11/20 14:06:39;;;;;;;;;;;14.00;75.40;;;;;;5044958;28;87999;-40
2022/11/20 14:09:04;;;;;;;;;;;14.00;75.60;;;;;;5045187;28;87021;-40
2022/11/20 14:11:30;;;;;;;;;;;14.00;75.50;;;;;;5045049;27;87359;-40
2022/11/20 14:13:56;;;;;;;;;;;14.00;75.50;;;;;;5044919;28;87663;-41
2022/11/20 14:16:22;;;;;;;;;;;14.00;75.50;;;;;;5045235;28;86215;-41
2022/11/20 14:18:47;;;;;;;;;;;14.00;75.40;;;;;;5045032;27;87247;-41
2022/11/20 14:21:23;;;;;;;;;;;14.00;75.50;;;;;;5047597;28;87765;-40
2022/11/20 14:23:51;;;;;;;;;;;14.00;75.60;;;;;;5044314;27;88891;-41
2022/11/20 14:26:19;;;;;;;;;;;14.00;75.60;;;;;;5044381;28;88178;-41
2022/11/20 14:28:48;;;;;;;;;;;14.00;75.60;;;;;;5044587;28;87043;-41
2022/11/20 14:31:18;;;;;;;;;;;13.90;75.60;;;;;;5044571;27;87543;-40
2022/11/20 14:33:43;;;;;;;;;;;13.90;75.60;;;;;;5044399;28;88320;-40
2022/11/20 14:36:16;;;;;;;;;;;14.00;75.50;;;;;;5044926;28;87106;-41